Time;durP1;ratioP1;P1;durP2;ratioP2;P2;SDS_P1;SDS_P2;PMS_P1;PMS_P2;Temp;Humidity;BMP_temperature;BMP_pressure;BME280_temperature;BME280_humidity;BME280_pressure;Samples;Min_cycle;Max_cycle;Signal;HPM_P1;HPM_P2
2023/03/12 04:01:05;;;;;;;3.60;2.47;;;3.80;69.20;;;;;;5757059;23;20849;-73
2023/03/12 04:03:32;;;;;;;3.00;1.97;;;3.80;69.20;;;;;;4978076;28;21024;-73
2023/03/12 04:06:00;;;;;;;3.00;1.80;;;3.70;69.30;;;;;;4978269;28;20500;-73
2023/03/12 04:08:27;;;;;;;4.80;2.90;;;3.80;69.30;;;;;;4979023;28;20458;-74
2023/03/12 04:10:54;;;;;;;3.37;2.30;;;3.80;68.90;;;;;;4978107;28;20565;-72
2023/03/12 04:13:21;;;;;;;3.07;1.97;;;3.70;69.40;;;;;;4978260;28;20442;-73
2023/03/12 04:15:48;;;;;;;3.07;2.43;;;3.70;69.80;;;;;;5097394;23;20463;-74
2023/03/12 04:18:16;;;;;;;3.70;2.30;;;3.70;69.60;;;;;;4957740;29;20462;-76
2023/03/12 04:20:43;;;;;;;2.87;1.90;;;3.50;69.50;;;;;;4957698;29;20443;-76
2023/03/12 04:23:10;;;;;;;3.30;1.70;;;3.50;70.10;;;;;;4957283;29;21015;-76
2023/03/12 04:25:37;;;;;;;4.40;2.00;;;3.40;70.10;;;;;;4957670;28;20496;-77
2023/03/12 04:28:05;;;;;;;2.93;2.00;;;3.30;70.40;;;;;;4957600;29;20462;-76
2023/03/12 04:30:31;;;;;;;3.80;2.00;;;3.20;70.80;;;;;;4957550;28;20451;-76
2023/03/12 04:32:58;;;;;;;2.97;1.80;;;3.30;71.20;;;;;;4957524;29;20518;-76
2023/03/12 04:35:26;;;;;;;4.97;2.43;;;3.20;70.80;;;;;;4957338;28;20451;-77
2023/03/12 04:37:53;;;;;;;3.37;1.90;;;3.30;71.30;;;;;;4957115;29;20823;-76
2023/03/12 04:40:20;;;;;;;3.80;2.03;;;3.40;70.70;;;;;;4957057;29;20949;-76
2023/03/12 04:42:47;;;;;;;3.43;2.27;;;3.50;71.00;;;;;;4957357;29;20498;-75
2023/03/12 04:45:14;;;;;;;3.53;2.10;;;3.70;70.20;;;;;;4957279;29;20558;-76
2023/03/12 04:47:41;;;;;;;3.40;2.10;;;3.80;70.40;;;;;;4957211;28;20474;-76
2023/03/12 04:50:08;;;;;;;3.40;2.30;;;3.90;69.20;;;;;;4957214;29;20451;-77
2023/03/12 04:52:36;;;;;;;2.83;2.23;;;4.00;69.00;;;;;;4957120;29;20455;-75
2023/03/12 04:55:03;;;;;;;4.30;2.03;;;4.10;68.70;;;;;;4957132;29;20803;-76
2023/03/12 04:57:30;;;;;;;3.27;1.83;;;4.20;68.30;;;;;;4956970;28;20478;-76
2023/03/12 04:59:57;;;;;;;4.03;2.30;;;4.20;68.20;;;;;;4956535;28;20458;-76
2023/03/12 05:02:24;;;;;;;3.57;2.17;;;4.30;68.00;;;;;;4957510;29;20451;-80
2023/03/12 05:04:50;;;;;;;4.03;2.00;;;4.40;68.10;;;;;;4956589;29;21012;-77
2023/03/12 05:07:17;;;;;;;4.47;2.57;;;4.40;68.00;;;;;;4956519;28;21049;-76
2023/03/12 05:09:45;;;;;;;5.60;2.23;;;4.50;68.40;;;;;;4957189;29;20480;-76
2023/03/12 05:12:12;;;;;;;2.80;2.00;;;4.40;68.20;;;;;;4956570;29;20459;-76
2023/03/12 05:14:39;;;;;;;4.53;2.27;;;4.30;68.20;;;;;;4956493;29;20517;-76
2023/03/12 05:17:06;;;;;;;3.20;2.20;;;4.30;68.70;;;;;;4956494;28;20514;-76
2023/03/12 05:19:32;;;;;;;5.43;3.60;;;4.30;68.90;;;;;;4956283;29;20455;-76
2023/03/12 05:21:59;;;;;;;3.10;2.30;;;4.20;69.70;;;;;;4956558;29;20455;-75
2023/03/12 05:24:26;;;;;;;4.20;2.30;;;4.20;70.20;;;;;;4956598;29;20483;-76
2023/03/12 05:26:54;;;;;;;3.17;2.07;;;4.20;70.50;;;;;;4956627;28;20545;-75
2023/03/12 05:29:20;;;;;;;3.40;2.10;;;4.10;71.90;;;;;;4956599;29;20466;-76
2023/03/12 05:31:48;;;;;;;2.97;2.10;;;4.10;73.20;;;;;;4956648;29;20587;-76
2023/03/12 05:34:15;;;;;;;4.43;2.23;;;4.10;73.90;;;;;;4956048;29;20894;-76
2023/03/12 05:36:42;;;;;;;3.97;2.50;;;4.00;74.80;;;;;;4956401;28;20478;-76
2023/03/12 05:39:08;;;;;;;2.67;2.00;;;4.20;75.30;;;;;;4956377;29;20459;-76
2023/03/12 05:41:35;;;;;;;4.07;2.10;;;4.20;75.50;;;;;;4956252;29;20448;-77
2023/03/12 05:44:03;;;;;;;3.33;1.70;;;4.30;76.00;;;;;;4956238;29;20483;-76
2023/03/12 05:46:30;;;;;;;3.70;2.70;;;4.30;76.40;;;;;;4956185;28;20534;-76
2023/03/12 05:48:56;;;;;;;3.67;2.00;;;4.30;76.30;;;;;;4956261;29;20455;-76
2023/03/12 05:51:23;;;;;;;3.93;1.97;;;4.40;76.80;;;;;;4956133;29;20944;-76
2023/03/12 05:53:50;;;;;;;3.77;2.40;;;4.40;77.00;;;;;;4956392;29;20459;-76
2023/03/12 05:56:17;;;;;;;3.40;1.87;;;4.50;77.10;;;;;;4956160;28;20463;-77
2023/03/12 05:58:44;;;;;;;3.40;2.20;;;4.60;77.00;;;;;;4956428;29;20495;-76
2023/03/12 06:01:14;;;;;;;3.13;2.43;;;4.60;77.00;;;;;;4956131;29;20462;-76
2023/03/12 06:03:41;;;;;;;3.93;2.50;;;4.70;77.00;;;;;;4956108;28;20447;-76
2023/03/12 06:06:08;;;;;;;3.20;1.83;;;4.80;76.80;;;;;;4956048;28;20521;-76
2023/03/12 06:08:35;;;;;;;3.20;2.30;;;4.90;76.20;;;;;;4955693;29;20798;-76
2023/03/12 06:11:02;;;;;;;2.90;2.00;;;4.90;75.90;;;;;;4955905;29;20451;-77
2023/03/12 06:13:29;;;;;;;3.10;2.40;;;4.90;75.50;;;;;;4955440;29;20813;-77
2023/03/12 06:16:02;;;;;;;3.60;2.13;;;4.80;75.50;;;;;;4955844;28;20876;-74
2023/03/12 06:18:30;;;;;;;2.90;2.20;;;4.70;75.50;;;;;;4955728;29;20435;-76
2023/03/12 06:21:06;;;;;;;3.33;2.03;;;4.70;75.10;;;;;;4955743;29;20450;-76
2023/03/12 06:23:33;;;;;;;2.90;2.10;;;4.70;75.30;;;;;;4955795;29;20835;-76
2023/03/12 06:26:00;;;;;;;3.60;2.57;;;4.80;75.30;;;;;;4955136;28;20865;-76
2023/03/12 06:28:26;;;;;;;5.23;2.80;;;4.50;75.50;;;;;;4955289;29;20443;-75
2023/03/12 06:30:54;;;;;;;5.70;3.50;;;4.10;77.80;;;;;;4955597;29;20462;-76
2023/03/12 06:33:20;;;;;;;4.17;3.77;;;3.80;79.30;;;;;;4955510;29;20502;-76
2023/03/12 06:35:48;;;;;;;4.70;3.80;;;3.50;80.40;;;;;;4955358;28;20471;-76
2023/03/12 06:38:15;;;;;;;5.57;3.47;;;3.70;80.70;;;;;;4955193;29;20451;-76
2023/03/12 06:40:41;;;;;;;3.60;3.30;;;3.70;80.40;;;;;;4955443;29;20482;-76
2023/03/12 06:43:11;;;;;;;4.80;3.47;;;3.60;81.00;;;;;;4955205;29;20519;-76
2023/03/12 06:45:38;;;;;;;3.90;3.00;;;3.60;81.30;;;;;;4954981;28;21007;-76
2023/03/12 06:48:05;;;;;;;3.73;3.00;;;3.10;81.60;;;;;;4955330;29;20510;-76
2023/03/12 06:50:31;;;;;;;4.00;3.30;;;3.30;82.30;;;;;;4955321;29;20451;-76
2023/03/12 06:52:59;;;;;;;4.50;2.73;;;3.40;82.20;;;;;;4955363;29;20455;-76
2023/03/12 06:55:26;;;;;;;4.63;3.20;;;3.30;82.80;;;;;;4955174;28;20458;-76
2023/03/12 06:57:53;;;;;;;3.90;2.93;;;3.60;82.80;;;;;;4955184;29;20454;-75
2023/03/12 07:00:20;;;;;;;4.20;3.17;;;3.70;82.60;;;;;;4955138;29;20460;-75
2023/03/12 07:02:47;;;;;;;3.60;3.17;;;3.80;82.80;;;;;;4954896;28;20451;-75
2023/03/12 07:05:14;;;;;;;4.67;3.67;;;3.80;82.50;;;;;;4954643;29;20841;-75
2023/03/12 07:07:40;;;;;;;5.40;3.50;;;3.80;83.00;;;;;;4954818;28;20475;-75
2023/03/12 07:10:10;;;;;;;3.90;2.80;;;3.90;83.10;;;;;;4955009;29;20467;-75
2023/03/12 07:12:37;;;;;;;4.03;2.80;;;4.00;82.70;;;;;;4954891;29;20455;-75
2023/03/12 07:15:05;;;;;;;3.50;2.37;;;3.90;82.50;;;;;;4954959;29;20455;-76
2023/03/12 07:17:32;;;;;;;3.67;2.60;;;3.80;82.60;;;;;;4954648;28;20562;-76
2023/03/12 07:19:58;;;;;;;3.57;2.30;;;3.60;83.80;;;;;;4954741;29;20443;-76
2023/03/12 07:22:25;;;;;;;5.00;2.77;;;3.60;84.30;;;;;;4954865;29;20502;-75
2023/03/12 07:24:52;;;;;;;4.10;2.70;;;3.80;84.10;;;;;;4956708;28;20494;-75
2023/03/12 07:27:20;;;;;;;2.97;2.00;;;3.60;84.50;;;;;;4958823;28;20470;-75
2023/03/12 07:29:47;;;;;;;3.63;2.60;;;3.90;84.60;;;;;;4958766;29;20447;-76
2023/03/12 07:32:13;;;;;;;3.77;2.40;;;4.00;83.80;;;;;;4958656;29;20447;-76
2023/03/12 07:34:40;;;;;;;4.07;2.17;;;4.20;84.20;;;;;;4958593;29;20494;-76
2023/03/12 07:37:07;;;;;;;3.97;2.60;;;4.30;83.90;;;;;;4958706;28;20471;-75
2023/03/12 07:39:33;;;;;;;3.80;2.33;;;4.30;83.10;;;;;;4958748;29;20506;-75
2023/03/12 07:42:00;;;;;;;2.70;2.10;;;4.10;83.40;;;;;;4958753;29;20455;-75
2023/03/12 07:44:28;;;;;;;4.00;2.33;;;4.10;83.90;;;;;;4958554;29;20478;-75
2023/03/12 07:46:55;;;;;;;3.00;2.30;;;4.10;84.50;;;;;;4958324;28;20482;-75
2023/03/12 07:49:21;;;;;;;2.70;2.20;;;4.20;85.00;;;;;;4958777;29;20818;-75
2023/03/12 07:51:48;;;;;;;3.03;2.10;;;4.40;87.80;;;;;;4958496;29;20809;-75
2023/03/12 07:54:15;;;;;;;3.67;2.33;;;4.40;84.20;;;;;;4958346;29;20550;-74
2023/03/12 07:56:41;;;;;;;4.10;2.33;;;4.50;83.90;;;;;;4958440;28;20475;-75
2023/03/12 07:59:08;;;;;;;3.67;2.53;;;4.40;83.00;;;;;;4959371;29;20439;-75
2023/03/12 08:01:36;;;;;;;3.77;2.37;;;4.20;83.50;;;;;;4958272;29;20450;-75
2023/03/12 08:04:03;;;;;;;3.60;2.40;;;4.20;84.20;;;;;;4958124;29;20459;-74
2023/03/12 08:06:30;;;;;;;2.77;1.90;;;4.30;83.90;;;;;;4957996;28;20490;-74
2023/03/12 08:08:56;;;;;;;3.43;2.30;;;4.30;83.60;;;;;;4958031;29;20446;-74
2023/03/12 08:11:23;;;;;;;3.33;2.40;;;4.30;83.30;;;;;;4957939;29;20486;-74
2023/03/12 08:13:49;;;;;;;4.10;2.10;;;4.30;83.30;;;;;;4957882;29;20509;-74
2023/03/12 08:16:17;;;;;;;3.27;2.23;;;4.30;83.90;;;;;;4957702;28;20487;-74
2023/03/12 08:18:45;;;;;;;3.23;2.00;;;4.40;83.50;;;;;;4957861;29;20443;-75
2023/03/12 08:21:13;;;;;;;3.63;2.33;;;4.50;83.20;;;;;;4957798;29;20506;-73
2023/03/12 08:23:40;;;;;;;3.60;2.37;;;4.40;83.40;;;;;;4957644;28;20863;-74
2023/03/12 08:26:07;;;;;;;2.97;2.30;;;4.40;83.90;;;;;;4957136;28;21062;-75
2023/03/12 08:28:34;;;;;;;3.77;2.20;;;4.40;84.40;;;;;;4957713;29;20451;-75
2023/03/12 08:31:01;;;;;;;3.00;2.17;;;4.50;84.60;;;;;;4957490;29;20868;-75
2023/03/12 08:33:28;;;;;;;3.10;2.30;;;4.30;84.90;;;;;;4957715;29;20517;-75
2023/03/12 08:35:56;;;;;;;3.00;2.70;;;4.30;85.60;;;;;;4956966;28;20474;-76
2023/03/12 08:38:23;;;;;;;5.13;2.50;;;4.30;86.40;;;;;;4957437;29;20509;-75
2023/03/12 08:40:56;;;;;;;6.57;3.30;;;4.40;86.60;;;;;;4957379;29;20455;-76
2023/03/12 08:43:22;;;;;;;3.73;2.80;;;4.50;87.00;;;;;;4957599;28;20467;-75
2023/03/12 08:45:53;;;;;;;3.40;2.47;;;4.50;87.70;;;;;;4957337;28;20549;-76
2023/03/12 08:48:20;;;;;;;3.43;2.60;;;4.60;87.80;;;;;;4957160;29;20936;-75
2023/03/12 08:50:47;;;;;;;3.70;2.80;;;4.90;89.20;;;;;;4957218;29;20458;-76
2023/03/12 08:53:15;;;;;;;3.43;2.80;;;4.90;87.90;;;;;;4957277;29;20447;-75
2023/03/12 08:55:41;;;;;;;3.60;2.70;;;5.00;88.80;;;;;;4957180;28;20452;-77
2023/03/12 08:58:08;;;;;;;4.03;2.30;;;5.10;88.70;;;;;;4957136;29;20455;-75
2023/03/12 09:00:35;;;;;;;3.73;2.87;;;5.10;88.50;;;;;;4957195;29;20454;-76
2023/03/12 09:03:02;;;;;;;3.30;2.73;;;5.30;88.80;;;;;;4957181;29;20462;-76
2023/03/12 09:05:29;;;;;;;4.73;3.60;;;5.30;88.40;;;;;;4957138;28;20537;-76
2023/03/12 09:07:56;;;;;;;4.63;3.07;;;5.50;88.80;;;;;;4957530;29;20483;-76
2023/03/12 09:10:24;;;;;;;4.47;3.23;;;5.60;89.00;;;;;;4957083;29;20462;-75
2023/03/12 09:12:51;;;;;;;4.13;3.23;;;5.50;89.10;;;;;;4956870;29;20448;-75
2023/03/12 09:15:17;;;;;;;4.23;3.40;;;5.60;89.60;;;;;;4958502;29;20872;-75
2023/03/12 09:17:46;;;;;;;6.83;3.70;;;5.90;91.30;;;;;;4956509;28;20541;-75
2023/03/12 09:20:14;;;;;;;4.63;3.40;;;6.00;89.60;;;;;;4956762;29;20459;-75
2023/03/12 09:22:41;;;;;;;3.67;2.83;;;6.20;89.70;;;;;;4956481;29;20875;-75
2023/03/12 09:25:10;;;;;;;3.50;2.80;;;6.20;88.80;;;;;;4956789;29;20829;-74
2023/03/12 09:27:38;;;;;;;3.90;3.43;;;6.30;89.40;;;;;;4956452;28;20478;-75
2023/03/12 09:30:07;;;;;;;5.43;4.03;;;6.40;89.20;;;;;;4956725;29;20506;-75
2023/03/12 09:32:33;;;;;;;4.03;3.63;;;6.50;89.20;;;;;;4956724;29;20443;-76
2023/03/12 09:35:00;;;;;;;6.67;3.67;;;6.60;89.10;;;;;;4956915;29;20466;-75
2023/03/12 09:37:31;;;;;;;4.53;3.60;;;6.60;89.70;;;;;;4956263;28;20474;-76
2023/03/12 09:39:58;;;;;;;4.37;3.80;;;6.70;90.40;;;;;;4957174;29;21081;-75
2023/03/12 09:42:28;;;;;;;4.90;3.60;;;7.00;89.10;;;;;;4956398;29;20458;-75
2023/03/12 09:45:00;;;;;;;3.80;3.03;;;7.10;89.10;;;;;;4958271;29;20447;-76
2023/03/12 09:47:29;;;;;;;4.73;3.37;;;7.20;88.90;;;;;;4963123;28;20463;-75
2023/03/12 09:50:03;;;;;;;3.63;3.00;;;7.40;89.30;;;;;;4976931;29;20459;-75
2023/03/12 09:52:34;;;;;;;3.60;3.00;;;7.60;89.10;;;;;;4962685;29;20794;-76
2023/03/12 09:55:06;;;;;;;4.53;3.00;;;7.90;88.80;;;;;;4956960;29;20440;-76
2023/03/12 09:57:33;;;;;;;3.80;3.00;;;7.90;87.70;;;;;;4956566;28;20904;-76
2023/03/12 10:00:04;;;;;;;4.07;3.00;;;7.90;88.70;;;;;;4956358;29;20478;-76
2023/03/12 10:03:02;;;;;;;3.17;2.70;;;8.10;88.90;;;;;;4956081;29;20444;-76
2023/03/12 10:05:37;;;;;;;3.40;2.40;;;8.20;88.60;;;;;;4954484;28;20490;-77
2023/03/12 10:08:10;;;;;;;3.20;2.73;;;8.20;88.80;;;;;;4956807;29;20443;-76
2023/03/12 10:10:46;;;;;;;3.40;2.40;;;8.30;89.00;;;;;;4956533;29;20451;-76
2023/03/12 10:13:24;;;;;;;2.73;1.90;;;8.30;89.20;;;;;;4955537;29;20439;-76
2023/03/12 10:16:05;;;;;;;3.03;2.00;;;8.40;89.70;;;;;;4955718;28;20490;-74
2023/03/12 10:18:44;;;;;;;2.90;2.10;;;8.40;90.20;;;;;;4956364;29;20878;-75
2023/03/12 10:21:19;;;;;;;3.30;1.93;;;8.40;90.20;;;;;;4955782;29;20435;-76
2023/03/12 10:23:58;;;;;;;3.33;1.87;;;8.60;90.70;;;;;;4955812;29;20439;-75
2023/03/12 10:26:27;;;;;;;3.00;2.10;;;8.70;90.40;;;;;;4955396;28;20517;-76
2023/03/12 10:28:58;;;;;;;3.60;1.60;;;8.80;90.60;;;;;;4955727;29;20459;-76
2023/03/12 10:31:31;;;;;;;2.53;1.47;;;9.10;90.60;;;;;;4955646;29;20432;-76
2023/03/12 10:33:59;;;;;;;2.13;1.00;;;9.30;90.30;;;;;;4955569;29;20435;-76
2023/03/12 10:36:33;;;;;;;2.70;1.30;;;9.40;89.30;;;;;;4955513;28;20514;-75
2023/03/12 10:39:00;;;;;;;2.27;1.23;;;9.50;90.00;;;;;;4956007;29;20482;-75
2023/03/12 10:41:31;;;;;;;2.10;0.90;;;9.60;88.90;;;;;;4955323;29;20447;-75
2023/03/12 10:44:03;;;;;;;2.20;1.27;;;9.60;89.20;;;;;;4955317;29;20442;-75
2023/03/12 10:46:51;;;;;;;2.07;1.00;;;9.50;88.70;;;;;;4954885;28;20490;-76
2023/03/12 10:49:32;;;;;;;2.30;1.20;;;9.50;89.40;;;;;;4954925;29;20444;-76
2023/03/12 10:52:02;;;;;;;2.17;1.10;;;9.60;89.10;;;;;;4956141;29;20443;-75
2023/03/12 10:54:31;;;;;;;2.03;0.90;;;9.80;89.60;;;;;;4955753;29;20522;-75
2023/03/12 10:56:58;;;;;;;3.60;1.00;;;9.90;88.60;;;;;;4954795;28;20463;-76
2023/03/12 10:59:31;;;;;;;2.10;1.03;;;10.10;88.40;;;;;;4954783;28;20458;-76
2023/03/12 11:01:59;;;;;;;2.37;1.00;;;10.40;87.90;;;;;;4955123;29;20475;-76
2023/03/12 11:04:28;;;;;;;2.40;1.10;;;10.70;88.00;;;;;;4954991;29;20462;-76
2023/03/12 11:07:15;;;;;;;2.00;0.80;;;11.00;85.90;;;;;;4955016;28;20487;-75
2023/03/12 11:09:42;;;;;;;2.57;0.97;;;11.20;84.60;;;;;;4956522;29;20435;-77
2023/03/12 11:12:24;;;;;;;2.00;1.00;;;11.10;84.00;;;;;;4955016;29;20462;-75
2023/03/12 11:14:50;;;;;;;2.00;0.97;;;11.30;83.10;;;;;;4954929;29;20474;-76
2023/03/12 11:17:23;;;;;;;2.07;0.97;;;11.30;82.30;;;;;;4954371;28;20884;-75
2023/03/12 11:19:50;;;;;;;2.53;1.00;;;11.40;83.10;;;;;;4955216;29;20439;-76
2023/03/12 11:22:29;;;;;;;2.50;0.90;;;11.40;83.50;;;;;;4954811;29;20462;-75
2023/03/12 11:24:58;;;;;;;2.00;0.90;;;11.40;83.80;;;;;;4955171;29;20439;-75
2023/03/12 11:27:36;;;;;;;2.97;0.87;;;11.50;82.70;;;;;;4955255;28;20486;-76
2023/03/12 11:30:04;;;;;;;2.17;1.13;;;11.50;82.00;;;;;;4956699;29;20432;-74
2023/03/12 11:32:35;;;;;;;1.90;0.90;;;11.10;82.70;;;;;;4954678;29;20806;-76
2023/03/12 11:35:03;;;;;;;2.00;0.80;;;10.90;84.00;;;;;;4954675;29;20835;-76
2023/03/12 11:37:42;;;;;;;2.00;0.80;;;10.90;85.00;;;;;;4954535;28;20916;-76
2023/03/12 11:40:24;;;;;;;2.20;0.80;;;11.00;85.50;;;;;;4954967;29;20851;-76
2023/03/12 11:43:17;;;;;;;1.83;0.70;;;11.20;85.80;;;;;;4954687;29;20439;-76
2023/03/12 11:45:53;;;;;;;2.33;1.10;;;11.40;84.50;;;;;;4952862;28;20527;-76
2023/03/12 11:48:28;;;;;;;3.20;0.93;;;11.50;83.60;;;;;;4954595;29;20435;-76
2023/03/12 11:51:10;;;;;;;2.07;0.80;;;11.60;83.00;;;;;;4954636;29;20434;-76
2023/03/12 11:53:49;;;;;;;2.00;0.80;;;11.90;81.80;;;;;;4955495;29;20482;-76
2023/03/12 11:56:27;;;;;;;2.30;0.80;;;12.00;81.10;;;;;;4954853;28;20517;-76
2023/03/12 11:59:13;;;;;;;2.10;0.90;;;12.00;81.60;;;;;;4954538;29;20450;-76
2023/03/12 12:01:57;;;;;;;2.67;0.90;;;12.00;80.40;;;;;;4955716;29;20451;-76
2023/03/12 12:04:59;;;;;;;2.00;0.83;;;12.10;79.40;;;;;;4955570;29;20470;-77
2023/03/12 12:07:43;;;;;;;2.67;0.80;;;11.90;80.20;;;;;;4933586;28;20502;-76
2023/03/12 12:10:21;;;;;;;2.20;0.90;;;12.00;79.90;;;;;;4955898;28;20860;-76
2023/03/12 12:12:55;;;;;;;2.60;1.00;;;12.10;79.60;;;;;;4958689;29;20439;-76
2023/03/12 12:15:31;;;;;;;2.73;1.03;;;12.10;79.00;;;;;;4959256;29;20443;-76
2023/03/12 12:18:13;;;;;;;3.30;1.10;;;12.00;79.00;;;;;;4958161;29;20854;-76
2023/03/12 12:20:47;;;;;;;2.50;1.10;;;12.00;78.10;;;;;;4958415;28;20443;-76
2023/03/12 12:23:17;;;;;;;3.40;1.20;;;12.20;79.40;;;;;;4958458;29;20450;-76
2023/03/12 12:25:57;;;;;;;2.83;1.30;;;12.40;76.80;;;;;;4958244;28;20458;-76
2023/03/12 12:28:52;;;;;;;2.93;1.10;;;12.40;77.10;;;;;;4958458;29;20997;-76
2023/03/12 12:31:30;;;;;;;3.00;1.47;;;12.60;76.50;;;;;;4958243;29;20439;-76
2023/03/12 12:34:34;;;;;;;3.07;1.20;;;12.60;75.10;;;;;;4958899;29;20530;-76
2023/03/12 12:37:18;;;;;;;2.50;1.20;;;13.00;74.20;;;;;;4954342;28;20478;-73
2023/03/12 12:39:49;;;;;;;3.50;1.33;;;13.40;72.90;;;;;;4957695;29;20439;-75
2023/03/12 12:42:21;;;;;;;2.60;1.20;;;13.40;73.10;;;;;;4958340;29;20435;-74
2023/03/12 12:44:50;;;;;;;4.57;1.50;;;13.40;72.60;;;;;;4958609;29;20451;-75
2023/03/12 12:47:29;;;;;;;2.33;0.93;;;13.40;73.90;;;;;;4958049;28;20491;-75
2023/03/12 12:50:00;;;;;;;2.90;1.10;;;13.40;73.30;;;;;;4958669;29;20442;-75
2023/03/12 12:52:29;;;;;;;2.90;1.63;;;13.40;73.30;;;;;;4958551;29;20881;-76
2023/03/12 12:55:00;;;;;;;3.57;1.13;;;13.20;73.70;;;;;;4958297;29;20455;-76
2023/03/12 12:57:35;;;;;;;3.60;1.30;;;13.20;74.20;;;;;;4957755;28;20474;-75
2023/03/12 13:00:37;;;;;;;4.40;1.40;;;13.10;73.80;;;;;;4957412;29;20939;-75
2023/03/12 13:03:04;;;;;;;5.00;1.53;;;12.90;73.90;;;;;;4950300;28;20454;-76
2023/03/12 13:05:45;;;;;;;3.03;1.27;;;12.30;74.40;;;;;;4957368;28;20451;-75
2023/03/12 13:08:33;;;;;;;3.50;1.43;;;12.20;75.40;;;;;;4957698;28;20845;-76
2023/03/12 13:11:03;;;;;;;2.93;1.10;;;12.20;75.20;;;;;;4957480;29;20809;-75
2023/03/12 13:13:30;;;;;;;3.13;1.10;;;12.10;75.40;;;;;;4957337;29;20439;-75
2023/03/12 13:16:19;;;;;;;3.70;1.97;;;12.10;75.80;;;;;;4956663;28;20479;-75
2023/03/12 13:18:57;;;;;;;2.30;0.87;;;12.10;75.80;;;;;;4957292;28;20445;-75
2023/03/12 13:21:29;;;;;;;2.73;1.07;;;12.20;76.40;;;;;;4956970;28;20438;-75
2023/03/12 13:24:05;;;;;;;2.00;0.93;;;12.20;77.00;;;;;;4957919;29;20780;-75
2023/03/12 13:26:45;;;;;;;2.20;1.10;;;12.10;77.50;;;;;;4956558;28;21029;-75
2023/03/12 13:29:20;;;;;;;2.33;0.90;;;12.10;77.40;;;;;;4956854;29;20858;-76
2023/03/12 13:31:47;;;;;;;2.30;1.10;;;12.10;77.60;;;;;;4957003;29;20457;-75
2023/03/12 13:34:44;;;;;;;2.63;1.30;;;11.80;77.80;;;;;;4956689;29;20468;-75
2023/03/12 13:37:26;;;;;;;2.30;1.07;;;11.80;78.60;;;;;;4956865;28;20471;-74
2023/03/12 13:39:54;;;;;;;2.83;1.20;;;11.90;77.90;;;;;;4957023;29;20810;-75
2023/03/12 13:42:40;;;;;;;2.87;1.30;;;12.10;77.40;;;;;;4957408;29;20451;-75
2023/03/12 13:45:26;;;;;;;2.47;1.00;;;12.20;77.60;;;;;;4957540;29;20494;-76
2023/03/12 13:47:58;;;;;;;2.33;1.20;;;12.50;76.70;;;;;;4957135;29;20479;-76
2023/03/12 13:50:26;;;;;;;3.07;1.27;;;12.90;76.40;;;;;;4956967;29;20446;-75
2023/03/12 13:53:02;;;;;;;2.80;1.17;;;13.40;74.30;;;;;;4956559;29;20463;-75
2023/03/12 13:55:33;;;;;;;3.00;0.90;;;13.70;71.70;;;;;;4956334;28;20423;-75
2023/03/12 13:58:07;;;;;;;2.57;1.40;;;13.70;71.30;;;;;;4956340;29;20435;-76
2023/03/12 14:00:40;;;;;;;2.83;0.97;;;13.40;70.70;;;;;;4958935;29;20842;-77
2023/03/12 14:03:15;;;;;;;2.47;1.00;;;13.30;71.40;;;;;;4956133;28;20968;-76
2023/03/12 14:05:50;;;;;;;2.40;1.00;;;13.20;71.60;;;;;;4956007;28;20477;-76
2023/03/12 14:08:36;;;;;;;2.50;1.00;;;13.00;71.50;;;;;;4955561;29;21028;-76
2023/03/12 14:11:18;;;;;;;2.80;1.10;;;13.20;72.20;;;;;;4955996;29;20443;-77
2023/03/12 14:14:04;;;;;;;3.20;1.50;;;13.70;70.70;;;;;;4956588;29;20463;-76
2023/03/12 14:16:36;;;;;;;2.60;1.20;;;13.40;70.00;;;;;;4955857;28;20475;-76
2023/03/12 14:19:04;;;;;;;3.43;1.20;;;13.20;70.70;;;;;;4956519;29;20439;-76
2023/03/12 14:21:35;;;;;;;3.33;1.40;;;13.00;71.20;;;;;;4956250;29;20448;-76
2023/03/12 14:24:03;;;;;;;2.50;1.30;;;13.40;72.00;;;;;;4956205;29;20455;-77
2023/03/12 14:26:35;;;;;;;2.43;1.07;;;14.90;66.90;;;;;;4956167;28;20566;-76
2023/03/12 14:29:08;;;;;;;2.90;1.13;;;15.50;64.50;;;;;;4955982;29;20838;-76
2023/03/12 14:31:36;;;;;;;3.03;1.50;;;15.30;64.40;;;;;;4956591;29;20522;-76
2023/03/12 14:34:08;;;;;;;3.10;1.30;;;14.30;67.00;;;;;;4955631;28;20470;-75
2023/03/12 14:36:40;;;;;;;3.13;1.00;;;13.80;68.40;;;;;;4955789;28;20482;-75
2023/03/12 14:39:21;;;;;;;2.10;1.00;;;13.30;70.40;;;;;;4955824;29;20924;-76
2023/03/12 14:41:55;;;;;;;2.57;1.00;;;13.60;70.00;;;;;;4955873;29;20428;-76
2023/03/12 14:44:24;;;;;;;2.17;1.00;;;14.50;67.60;;;;;;4956674;29;20850;-75
2023/03/12 14:46:59;;;;;;;2.90;1.30;;;14.70;66.80;;;;;;4955318;28;20988;-76
2023/03/12 14:49:26;;;;;;;2.33;1.20;;;14.80;67.00;;;;;;4955186;29;20458;-76
2023/03/12 14:51:54;;;;;;;2.40;1.00;;;14.80;67.60;;;;;;4954845;29;20863;-76
2023/03/12 14:54:23;;;;;;;2.67;0.90;;;16.00;65.60;;;;;;4955487;29;20455;-76
2023/03/12 14:56:51;;;;;;;2.60;1.00;;;17.10;61.70;;;;;;4955973;28;20903;-76
2023/03/12 14:59:27;;;;;;;2.50;1.00;;;18.10;58.90;;;;;;4955408;29;20803;-75
2023/03/12 15:02:00;;;;;;;2.60;1.10;;;19.00;56.20;;;;;;4955690;29;20439;-75
2023/03/12 15:04:28;;;;;;;3.43;1.10;;;19.30;54.20;;;;;;4955538;29;20473;-76
2023/03/12 15:06:57;;;;;;;2.80;1.00;;;19.90;53.00;;;;;;4955313;28;20506;-76
2023/03/12 15:09:26;;;;;;;2.70;1.30;;;19.50;53.90;;;;;;4954668;29;21032;-76
2023/03/12 15:11:57;;;;;;;3.43;1.87;;;19.10;54.60;;;;;;4957645;29;20572;-76
2023/03/12 15:14:26;;;;;;;2.63;1.60;;;18.80;54.70;;;;;;4955951;29;20435;-76
2023/03/12 15:16:53;;;;;;;3.30;1.20;;;18.00;55.50;;;;;;4954360;28;20470;-76
2023/03/12 15:19:24;;;;;;;3.37;1.23;;;17.30;57.50;;;;;;4954864;29;20459;-75
2023/03/12 15:21:51;;;;;;;2.70;1.30;;;17.10;59.20;;;;;;4954849;29;20490;-76
2023/03/12 15:24:18;;;;;;;3.10;1.30;;;17.20;57.10;;;;;;4955663;29;20450;-77
2023/03/12 15:26:45;;;;;;;4.50;1.67;;;16.70;57.50;;;;;;4954718;28;20483;-76
2023/03/12 15:29:25;;;;;;;3.20;1.40;;;15.80;59.60;;;;;;4954772;29;20458;-76
2023/03/12 15:31:52;;;;;;;3.00;1.60;;;15.00;62.00;;;;;;4954844;29;20539;-76
2023/03/12 15:34:30;;;;;;;3.80;1.40;;;14.70;63.00;;;;;;4954785;29;20459;-76
2023/03/12 15:36:58;;;;;;;5.33;1.40;;;14.50;63.80;;;;;;4954391;28;20471;-76
2023/03/12 15:39:27;;;;;;;2.70;1.47;;;14.00;64.70;;;;;;4954625;29;20571;-75
2023/03/12 15:41:54;;;;;;;3.37;1.53;;;13.70;65.90;;;;;;4954893;29;20455;-78
2023/03/12 15:44:24;;;;;;;3.17;1.40;;;13.50;66.80;;;;;;4957739;28;20447;-80
2023/03/12 15:46:53;;;;;;;3.77;1.80;;;13.30;67.00;;;;;;4960175;28;20493;-78
2023/03/12 15:49:26;;;;;;;3.00;1.90;;;13.10;67.30;;;;;;4959951;29;20447;-78
2023/03/12 15:52:03;;;;;;;3.20;1.53;;;12.90;68.40;;;;;;4958721;29;20936;-78
2023/03/12 15:54:31;;;;;;;3.30;1.47;;;12.80;68.80;;;;;;4959080;29;20951;-77
2023/03/12 15:57:32;;;;;;;3.37;1.43;;;12.80;69.00;;;;;;4958049;28;20475;-76
2023/03/12 16:00:18;;;;;;;2.50;1.50;;;12.90;69.00;;;;;;4918860;29;20472;-75
2023/03/12 16:03:10;;;;;;;2.80;1.50;;;12.80;68.60;;;;;;4920281;29;20500;-76
2023/03/12 16:05:40;;;;;;;2.50;1.43;;;12.80;68.50;;;;;;4950715;28;20505;-76
2023/03/12 16:08:15;;;;;;;3.77;1.37;;;12.70;69.10;;;;;;4960904;29;20487;-76
2023/03/12 16:10:43;;;;;;;2.70;1.20;;;12.70;69.10;;;;;;4959755;29;20439;-76
2023/03/12 16:13:14;;;;;;;3.97;1.77;;;12.60;68.50;;;;;;4962253;29;20455;-75
2023/03/12 16:15:57;;;;;;;4.37;1.70;;;12.50;69.30;;;;;;4961983;28;20443;-75
2023/03/12 16:18:25;;;;;;;3.67;1.43;;;12.50;69.60;;;;;;4962968;28;20575;-76
2023/03/12 16:21:31;;;;;;;2.97;1.20;;;12.40;69.80;;;;;;4963815;29;20462;-77
2023/03/12 16:24:01;;;;;;;3.73;1.47;;;12.40;69.80;;;;;;4967896;29;20478;-79
2023/03/12 16:26:34;;;;;;;2.80;1.50;;;12.40;70.50;;;;;;4966523;28;20471;-78
2023/03/12 16:29:04;;;;;;;2.80;1.40;;;12.30;70.70;;;;;;4966587;28;20513;-78
2023/03/12 16:31:43;;;;;;;4.03;1.60;;;12.30;70.10;;;;;;4966373;29;20984;-79
2023/03/12 16:34:16;;;;;;;3.70;1.50;;;12.30;70.40;;;;;;4966815;28;20933;-78
2023/03/12 16:36:44;;;;;;;2.77;1.50;;;12.30;69.80;;;;;;4967046;28;20526;-77
2023/03/12 16:39:20;;;;;;;3.33;1.50;;;12.30;70.00;;;;;;4965759;29;20444;-77
2023/03/12 16:41:57;;;;;;;3.70;1.53;;;12.20;69.70;;;;;;4965920;29;20468;-78
2023/03/12 16:44:31;;;;;;;2.60;1.63;;;12.20;69.90;;;;;;4967241;29;20494;-78
2023/03/12 16:47:02;;;;;;;7.63;1.90;;;12.00;69.70;;;;;;4968480;28;20482;-77
2023/03/12 16:49:29;;;;;;;3.57;1.40;;;12.10;70.00;;;;;;4973047;29;20451;-79
2023/03/12 16:52:23;;;;;;;3.87;1.90;;;12.10;70.00;;;;;;4974433;29;20447;-79
2023/03/12 16:54:53;;;;;;;4.00;1.53;;;12.20;69.90;;;;;;4970959;28;20450;-78
2023/03/12 16:57:28;;;;;;;3.50;1.57;;;12.40;69.70;;;;;;4971159;28;20467;-78
2023/03/12 17:00:00;;;;;;;2.90;1.37;;;12.30;69.10;;;;;;4970296;29;20458;-78
2023/03/12 17:02:44;;;;;;;3.53;1.77;;;12.30;69.70;;;;;;4970896;28;20851;-78
2023/03/12 17:05:17;;;;;;;4.50;1.87;;;12.40;69.60;;;;;;4964777;29;20932;-78
2023/03/12 17:07:44;;;;;;;2.73;1.50;;;12.20;69.10;;;;;;4962065;28;20494;-77
2023/03/12 17:10:11;;;;;;;4.20;1.70;;;12.20;69.50;;;;;;4957400;29;20458;-77
2023/03/12 17:12:40;;;;;;;2.83;1.50;;;12.20;69.80;;;;;;4957371;29;20462;-77
2023/03/12 17:15:12;;;;;;;4.00;1.80;;;12.20;69.80;;;;;;4956892;29;20821;-77